sensor_id;sensor_type;location;lat;lon;timestamp;P1;durP1;ratioP1;P2;durP2;ratioP2
5821;SDS011;2937;48.562;8.022;2023-08-17T00:00:55;12.47;;;10.60;;
5821;SDS011;2937;48.562;8.022;2023-08-17T00:05:47;13.67;;;10.77;;
5821;SDS011;2937;48.562;8.022;2023-08-17T00:10:40;11.87;;;9.63;;
5821;SDS011;2937;48.562;8.022;2023-08-17T00:15:34;14.40;;;10.80;;
5821;SDS011;2937;48.562;8.022;2023-08-17T00:20:27;15.30;;;10.00;;
5821;SDS011;2937;48.562;8.022;2023-08-17T00:25:19;13.30;;;10.90;;
5821;SDS011;2937;48.562;8.022;2023-08-17T00:30:13;13.13;;;11.60;;
5821;SDS011;2937;48.562;8.022;2023-08-17T00:35:07;13.60;;;11.37;;
5821;SDS011;2937;48.562;8.022;2023-08-17T00:40:00;15.23;;;11.60;;
5821;SDS011;2937;48.562;8.022;2023-08-17T00:44:52;18.37;;;12.33;;
5821;SDS011;2937;48.562;8.022;2023-08-17T00:49:45;17.10;;;12.23;;
5821;SDS011;2937;48.562;8.022;2023-08-17T00:54:39;17.40;;;13.47;;
5821;SDS011;2937;48.562;8.022;2023-08-17T00:59:32;17.00;;;12.80;;
5821;SDS011;2937;48.562;8.022;2023-08-17T01:04:27;16.43;;;11.70;;
5821;SDS011;2937;48.562;8.022;2023-08-17T01:09:20;17.77;;;13.10;;
5821;SDS011;2937;48.562;8.022;2023-08-17T01:14:15;22.23;;;14.53;;
5821;SDS011;2937;48.562;8.022;2023-08-17T01:19:10;21.43;;;16.20;;
5821;SDS011;2937;48.562;8.022;2023-08-17T01:24:07;20.73;;;13.73;;
5821;SDS011;2937;48.562;8.022;2023-08-17T01:28:59;22.93;;;15.67;;
5821;SDS011;2937;48.562;8.022;2023-08-17T01:33:54;19.60;;;15.30;;
5821;SDS011;2937;48.562;8.022;2023-08-17T01:38:47;21.70;;;15.67;;
5821;SDS011;2937;48.562;8.022;2023-08-17T01:43:44;22.47;;;16.23;;
5821;SDS011;2937;48.562;8.022;2023-08-17T01:48:39;20.43;;;15.33;;
5821;SDS011;2937;48.562;8.022;2023-08-17T01:53:32;20.80;;;15.70;;
5821;SDS011;2937;48.562;8.022;2023-08-17T01:58:25;21.23;;;14.60;;
5821;SDS011;2937;48.562;8.022;2023-08-17T02:03:19;20.03;;;14.93;;
5821;SDS011;2937;48.562;8.022;2023-08-17T02:08:12;24.60;;;15.37;;
5821;SDS011;2937;48.562;8.022;2023-08-17T02:13:05;20.23;;;13.47;;
5821;SDS011;2937;48.562;8.022;2023-08-17T02:18:08;22.10;;;15.20;;
5821;SDS011;2937;48.562;8.022;2023-08-17T02:23:02;21.20;;;14.73;;
5821;SDS011;2937;48.562;8.022;2023-08-17T02:27:55;18.70;;;13.50;;
5821;SDS011;2937;48.562;8.022;2023-08-17T02:32:47;17.00;;;13.30;;
5821;SDS011;2937;48.562;8.022;2023-08-17T02:37:41;14.73;;;12.60;;
5821;SDS011;2937;48.562;8.022;2023-08-17T02:42:35;16.80;;;14.13;;
5821;SDS011;2937;48.562;8.022;2023-08-17T02:47:28;18.50;;;12.70;;
5821;SDS011;2937;48.562;8.022;2023-08-17T02:52:20;14.37;;;12.40;;
5821;SDS011;2937;48.562;8.022;2023-08-17T02:57:13;14.97;;;11.70;;
5821;SDS011;2937;48.562;8.022;2023-08-17T03:02:07;13.90;;;11.67;;
5821;SDS011;2937;48.562;8.022;2023-08-17T03:07:00;11.40;;;10.20;;
5821;SDS011;2937;48.562;8.022;2023-08-17T03:11:52;11.80;;;8.80;;
5821;SDS011;2937;48.562;8.022;2023-08-17T03:16:45;8.27;;;7.47;;
5821;SDS011;2937;48.562;8.022;2023-08-17T03:21:40;9.53;;;6.90;;
5821;SDS011;2937;48.562;8.022;2023-08-17T03:26:33;10.60;;;7.33;;
5821;SDS011;2937;48.562;8.022;2023-08-17T03:31:26;7.37;;;6.67;;
5821;SDS011;2937;48.562;8.022;2023-08-17T03:36:20;7.93;;;7.03;;
5821;SDS011;2937;48.562;8.022;2023-08-17T03:41:14;8.90;;;6.53;;
5821;SDS011;2937;48.562;8.022;2023-08-17T03:46:07;7.80;;;6.30;;
5821;SDS011;2937;48.562;8.022;2023-08-17T03:51:00;12.50;;;6.30;;
5821;SDS011;2937;48.562;8.022;2023-08-17T03:55:54;7.90;;;5.33;;
5821;SDS011;2937;48.562;8.022;2023-08-17T04:00:50;5.50;;;4.90;;
5821;SDS011;2937;48.562;8.022;2023-08-17T04:05:51;7.50;;;5.47;;
5821;SDS011;2937;48.562;8.022;2023-08-17T04:10:44;8.13;;;6.00;;
5821;SDS011;2937;48.562;8.022;2023-08-17T04:15:37;8.07;;;5.40;;
5821;SDS011;2937;48.562;8.022;2023-08-17T04:20:31;7.10;;;5.33;;
5821;SDS011;2937;48.562;8.022;2023-08-17T04:25:24;7.87;;;5.20;;
5821;SDS011;2937;48.562;8.022;2023-08-17T04:30:17;8.30;;;5.73;;
5821;SDS011;2937;48.562;8.022;2023-08-17T04:35:23;7.30;;;5.70;;
5821;SDS011;2937;48.562;8.022;2023-08-17T04:40:17;6.90;;;5.80;;
5821;SDS011;2937;48.562;8.022;2023-08-17T04:45:11;7.80;;;5.80;;
5821;SDS011;2937;48.562;8.022;2023-08-17T04:50:07;9.93;;;6.57;;
5821;SDS011;2937;48.562;8.022;2023-08-17T04:55:00;11.27;;;8.77;;
5821;SDS011;2937;48.562;8.022;2023-08-17T04:59:56;13.40;;;9.80;;
5821;SDS011;2937;48.562;8.022;2023-08-17T05:04:49;15.50;;;10.90;;
5821;SDS011;2937;48.562;8.022;2023-08-17T05:09:42;13.70;;;10.20;;
5821;SDS011;2937;48.562;8.022;2023-08-17T05:14:35;18.50;;;11.10;;
5821;SDS011;2937;48.562;8.022;2023-08-17T05:19:29;17.27;;;11.87;;
5821;SDS011;2937;48.562;8.022;2023-08-17T05:24:22;18.90;;;11.57;;
5821;SDS011;2937;48.562;8.022;2023-08-17T05:29:15;13.63;;;10.00;;
5821;SDS011;2937;48.562;8.022;2023-08-17T05:34:07;15.93;;;10.70;;
5821;SDS011;2937;48.562;8.022;2023-08-17T05:39:04;18.50;;;10.90;;
5821;SDS011;2937;48.562;8.022;2023-08-17T05:43:57;24.83;;;13.80;;
5821;SDS011;2937;48.562;8.022;2023-08-17T05:48:51;17.20;;;11.37;;
5821;SDS011;2937;48.562;8.022;2023-08-17T05:53:44;17.97;;;11.00;;
5821;SDS011;2937;48.562;8.022;2023-08-17T05:58:38;17.50;;;10.40;;
5821;SDS011;2937;48.562;8.022;2023-08-17T06:03:32;15.63;;;10.97;;
5821;SDS011;2937;48.562;8.022;2023-08-17T06:08:25;16.57;;;10.83;;
5821;SDS011;2937;48.562;8.022;2023-08-17T06:13:17;19.50;;;11.20;;
5821;SDS011;2937;48.562;8.022;2023-08-17T06:18:11;21.40;;;13.90;;
5821;SDS011;2937;48.562;8.022;2023-08-17T06:23:04;25.77;;;16.70;;
5821;SDS011;2937;48.562;8.022;2023-08-17T06:27:57;20.00;;;13.27;;
5821;SDS011;2937;48.562;8.022;2023-08-17T06:32:50;19.13;;;14.20;;
5821;SDS011;2937;48.562;8.022;2023-08-17T06:37:44;20.40;;;15.07;;
5821;SDS011;2937;48.562;8.022;2023-08-17T06:42:36;20.37;;;15.00;;
5821;SDS011;2937;48.562;8.022;2023-08-17T06:47:29;22.93;;;15.07;;
5821;SDS011;2937;48.562;8.022;2023-08-17T06:52:22;24.77;;;15.30;;
5821;SDS011;2937;48.562;8.022;2023-08-17T06:57:16;22.37;;;15.00;;
5821;SDS011;2937;48.562;8.022;2023-08-17T07:02:10;19.87;;;14.47;;
5821;SDS011;2937;48.562;8.022;2023-08-17T07:07:02;21.83;;;14.40;;
5821;SDS011;2937;48.562;8.022;2023-08-17T07:11:55;21.43;;;14.93;;
5821;SDS011;2937;48.562;8.022;2023-08-17T07:16:49;18.73;;;13.60;;
5821;SDS011;2937;48.562;8.022;2023-08-17T07:21:42;17.83;;;13.30;;
5821;SDS011;2937;48.562;8.022;2023-08-17T07:26:35;21.50;;;14.07;;
5821;SDS011;2937;48.562;8.022;2023-08-17T07:31:27;18.47;;;13.57;;
5821;SDS011;2937;48.562;8.022;2023-08-17T07:36:21;19.30;;;13.00;;
5821;SDS011;2937;48.562;8.022;2023-08-17T07:41:14;18.13;;;13.70;;
5821;SDS011;2937;48.562;8.022;2023-08-17T07:46:07;22.10;;;14.10;;
5821;SDS011;2937;48.562;8.022;2023-08-17T07:51:00;21.70;;;15.30;;
5821;SDS011;2937;48.562;8.022;2023-08-17T07:55:54;16.30;;;12.67;;
5821;SDS011;2937;48.562;8.022;2023-08-17T08:00:46;21.80;;;12.17;;
5821;SDS011;2937;48.562;8.022;2023-08-17T08:05:39;15.33;;;12.20;;
5821;SDS011;2937;48.562;8.022;2023-08-17T08:10:32;13.73;;;11.23;;
5821;SDS011;2937;48.562;8.022;2023-08-17T08:15:26;14.50;;;12.33;;
5821;SDS011;2937;48.562;8.022;2023-08-17T08:20:19;17.60;;;12.03;;
5821;SDS011;2937;48.562;8.022;2023-08-17T08:25:12;14.63;;;11.73;;
5821;SDS011;2937;48.562;8.022;2023-08-17T08:30:05;13.13;;;11.60;;
5821;SDS011;2937;48.562;8.022;2023-08-17T08:34:59;13.87;;;12.40;;
5821;SDS011;2937;48.562;8.022;2023-08-17T08:39:52;13.90;;;11.27;;
5821;SDS011;2937;48.562;8.022;2023-08-17T08:44:45;13.17;;;11.77;;
5821;SDS011;2937;48.562;8.022;2023-08-17T08:49:39;17.40;;;11.93;;
5821;SDS011;2937;48.562;8.022;2023-08-17T08:54:36;16.73;;;12.40;;
5821;SDS011;2937;48.562;8.022;2023-08-17T08:59:30;16.03;;;11.10;;
5821;SDS011;2937;48.562;8.022;2023-08-17T09:04:23;12.17;;;10.63;;
5821;SDS011;2937;48.562;8.022;2023-08-17T09:09:18;13.30;;;11.00;;
5821;SDS011;2937;48.562;8.022;2023-08-17T09:14:12;12.40;;;10.63;;
5821;SDS011;2937;48.562;8.022;2023-08-17T09:19:05;13.60;;;10.20;;
5821;SDS011;2937;48.562;8.022;2023-08-17T09:23:58;13.13;;;10.70;;
5821;SDS011;2937;48.562;8.022;2023-08-17T09:28:51;14.83;;;10.70;;
5821;SDS011;2937;48.562;8.022;2023-08-17T09:33:48;10.63;;;9.53;;
5821;SDS011;2937;48.562;8.022;2023-08-17T09:38:40;13.13;;;10.47;;
5821;SDS011;2937;48.562;8.022;2023-08-17T09:43:33;12.50;;;11.20;;
5821;SDS011;2937;48.562;8.022;2023-08-17T09:48:26;12.53;;;9.73;;
5821;SDS011;2937;48.562;8.022;2023-08-17T09:53:25;9.93;;;8.93;;
5821;SDS011;2937;48.562;8.022;2023-08-17T09:58:17;10.00;;;9.00;;
5821;SDS011;2937;48.562;8.022;2023-08-17T10:03:11;15.00;;;11.20;;
5821;SDS011;2937;48.562;8.022;2023-08-17T10:08:04;11.97;;;10.50;;
5821;SDS011;2937;48.562;8.022;2023-08-17T10:13:01;13.33;;;10.10;;
5821;SDS011;2937;48.562;8.022;2023-08-17T10:17:58;11.97;;;10.00;;
5821;SDS011;2937;48.562;8.022;2023-08-17T10:22:53;14.87;;;11.40;;
5821;SDS011;2937;48.562;8.022;2023-08-17T10:27:47;11.83;;;10.23;;
5821;SDS011;2937;48.562;8.022;2023-08-17T10:32:44;11.07;;;9.97;;
5821;SDS011;2937;48.562;8.022;2023-08-17T10:37:38;10.37;;;9.37;;
5821;SDS011;2937;48.562;8.022;2023-08-17T10:42:31;10.43;;;9.33;;
5821;SDS011;2937;48.562;8.022;2023-08-17T10:47:24;9.00;;;8.10;;
5821;SDS011;2937;48.562;8.022;2023-08-17T10:52:28;12.90;;;9.00;;
5821;SDS011;2937;48.562;8.022;2023-08-17T10:57:25;14.77;;;9.60;;
5821;SDS011;2937;48.562;8.022;2023-08-17T11:02:20;12.93;;;9.60;;
5821;SDS011;2937;48.562;8.022;2023-08-17T11:07:15;11.63;;;8.87;;
5821;SDS011;2937;48.562;8.022;2023-08-17T11:17:18;8.73;;;7.93;;
5821;SDS011;2937;48.562;8.022;2023-08-17T11:22:12;10.60;;;9.03;;
5821;SDS011;2937;48.562;8.022;2023-08-17T11:27:05;10.30;;;8.70;;
5821;SDS011;2937;48.562;8.022;2023-08-17T11:31:57;11.23;;;8.70;;
5821;SDS011;2937;48.562;8.022;2023-08-17T11:36:51;10.43;;;8.70;;
5821;SDS011;2937;48.562;8.022;2023-08-17T11:41:44;14.23;;;8.57;;
5821;SDS011;2937;48.562;8.022;2023-08-17T11:46:37;8.80;;;7.90;;
5821;SDS011;2937;48.562;8.022;2023-08-17T11:51:30;9.47;;;8.50;;
5821;SDS011;2937;48.562;8.022;2023-08-17T11:56:24;10.10;;;8.90;;
5821;SDS011;2937;48.562;8.022;2023-08-17T12:01:17;9.60;;;8.03;;
5821;SDS011;2937;48.562;8.022;2023-08-17T12:06:10;11.43;;;8.43;;
5821;SDS011;2937;48.562;8.022;2023-08-17T12:11:04;10.30;;;8.70;;
5821;SDS011;2937;48.562;8.022;2023-08-17T12:15:59;9.67;;;8.40;;
5821;SDS011;2937;48.562;8.022;2023-08-17T12:20:53;9.53;;;8.60;;
5821;SDS011;2937;48.562;8.022;2023-08-17T12:25:51;9.87;;;8.70;;
5821;SDS011;2937;48.562;8.022;2023-08-17T12:30:44;9.40;;;8.57;;
5821;SDS011;2937;48.562;8.022;2023-08-17T12:35:38;9.40;;;8.50;;
5821;SDS011;2937;48.562;8.022;2023-08-17T12:40:31;9.30;;;8.27;;
5821;SDS011;2937;48.562;8.022;2023-08-17T12:45:24;9.53;;;8.07;;
5821;SDS011;2937;48.562;8.022;2023-08-17T12:50:19;9.37;;;8.47;;
5821;SDS011;2937;48.562;8.022;2023-08-17T12:55:13;9.93;;;8.97;;
5821;SDS011;2937;48.562;8.022;2023-08-17T13:00:06;9.47;;;8.53;;
5821;SDS011;2937;48.562;8.022;2023-08-17T13:05:00;10.50;;;9.40;;
5821;SDS011;2937;48.562;8.022;2023-08-17T13:09:53;10.90;;;8.80;;
5821;SDS011;2937;48.562;8.022;2023-08-17T13:14:47;9.70;;;8.70;;
5821;SDS011;2937;48.562;8.022;2023-08-17T13:19:39;10.37;;;9.27;;
5821;SDS011;2937;48.562;8.022;2023-08-17T13:24:32;10.07;;;9.17;;
5821;SDS011;2937;48.562;8.022;2023-08-17T13:29:25;10.47;;;8.80;;
5821;SDS011;2937;48.562;8.022;2023-08-17T13:34:19;11.50;;;8.63;;
5821;SDS011;2937;48.562;8.022;2023-08-17T13:39:11;10.07;;;9.07;;
5821;SDS011;2937;48.562;8.022;2023-08-17T13:44:04;9.23;;;8.43;;
5821;SDS011;2937;48.562;8.022;2023-08-17T13:48:57;11.43;;;9.40;;
5821;SDS011;2937;48.562;8.022;2023-08-17T13:53:51;10.27;;;9.17;;
5821;SDS011;2937;48.562;8.022;2023-08-17T13:58:44;10.87;;;9.77;;
5821;SDS011;2937;48.562;8.022;2023-08-17T14:03:37;10.23;;;9.23;;
5821;SDS011;2937;48.562;8.022;2023-08-17T14:08:29;9.80;;;8.80;;
5821;SDS011;2937;48.562;8.022;2023-08-17T14:13:23;9.97;;;8.97;;
5821;SDS011;2937;48.562;8.022;2023-08-17T14:18:16;10.40;;;9.13;;
5821;SDS011;2937;48.562;8.022;2023-08-17T14:23:09;10.90;;;9.10;;
5821;SDS011;2937;48.562;8.022;2023-08-17T14:28:03;9.37;;;8.50;;
5821;SDS011;2937;48.562;8.022;2023-08-17T14:32:57;11.17;;;10.10;;
5821;SDS011;2937;48.562;8.022;2023-08-17T14:37:52;11.87;;;9.60;;
5821;SDS011;2937;48.562;8.022;2023-08-17T14:42:44;15.10;;;10.30;;
5821;SDS011;2937;48.562;8.022;2023-08-17T14:47:37;10.90;;;9.80;;
5821;SDS011;2937;48.562;8.022;2023-08-17T14:52:31;11.00;;;10.00;;
5821;SDS011;2937;48.562;8.022;2023-08-17T14:57:25;12.13;;;10.50;;
5821;SDS011;2937;48.562;8.022;2023-08-17T15:02:18;14.30;;;9.50;;
5821;SDS011;2937;48.562;8.022;2023-08-17T15:07:12;11.00;;;9.37;;
5821;SDS011;2937;48.562;8.022;2023-08-17T15:12:06;10.40;;;8.70;;
5821;SDS011;2937;48.562;8.022;2023-08-17T15:16:59;15.40;;;9.10;;
5821;SDS011;2937;48.562;8.022;2023-08-17T15:21:52;11.93;;;9.30;;
5821;SDS011;2937;48.562;8.022;2023-08-17T15:26:44;8.93;;;8.03;;
5821;SDS011;2937;48.562;8.022;2023-08-17T15:31:38;9.60;;;8.70;;
5821;SDS011;2937;48.562;8.022;2023-08-17T15:36:31;11.00;;;9.13;;
5821;SDS011;2937;48.562;8.022;2023-08-17T15:41:23;10.17;;;8.30;;
5821;SDS011;2937;48.562;8.022;2023-08-17T15:46:16;10.50;;;8.50;;
5821;SDS011;2937;48.562;8.022;2023-08-17T15:51:10;12.20;;;8.63;;
5821;SDS011;2937;48.562;8.022;2023-08-17T15:56:03;12.63;;;7.83;;
5821;SDS011;2937;48.562;8.022;2023-08-17T16:00:56;11.87;;;8.70;;
5821;SDS011;2937;48.562;8.022;2023-08-17T16:05:48;9.97;;;8.70;;
5821;SDS011;2937;48.562;8.022;2023-08-17T16:10:42;10.40;;;8.57;;
5821;SDS011;2937;48.562;8.022;2023-08-17T16:15:35;12.80;;;9.30;;
5821;SDS011;2937;48.562;8.022;2023-08-17T16:20:28;9.33;;;8.20;;
5821;SDS011;2937;48.562;8.022;2023-08-17T16:25:24;10.40;;;8.70;;
5821;SDS011;2937;48.562;8.022;2023-08-17T16:30:22;12.53;;;9.53;;
5821;SDS011;2937;48.562;8.022;2023-08-17T16:35:15;11.47;;;9.30;;
5821;SDS011;2937;48.562;8.022;2023-08-17T16:40:08;11.00;;;9.53;;
5821;SDS011;2937;48.562;8.022;2023-08-17T16:45:11;12.63;;;10.00;;
5821;SDS011;2937;48.562;8.022;2023-08-17T16:50:05;12.37;;;10.23;;
5821;SDS011;2937;48.562;8.022;2023-08-17T16:54:58;10.77;;;9.57;;
5821;SDS011;2937;48.562;8.022;2023-08-17T16:59:50;11.03;;;9.27;;
5821;SDS011;2937;48.562;8.022;2023-08-17T17:04:43;10.70;;;9.13;;
5821;SDS011;2937;48.562;8.022;2023-08-17T17:09:37;10.77;;;9.17;;
5821;SDS011;2937;48.562;8.022;2023-08-17T17:14:30;11.60;;;9.93;;
5821;SDS011;2937;48.562;8.022;2023-08-17T17:19:22;11.63;;;9.70;;
5821;SDS011;2937;48.562;8.022;2023-08-17T17:24:15;12.57;;;10.13;;
5821;SDS011;2937;48.562;8.022;2023-08-17T17:29:15;13.77;;;10.30;;
5821;SDS011;2937;48.562;8.022;2023-08-17T17:34:08;10.67;;;9.53;;
5821;SDS011;2937;48.562;8.022;2023-08-17T17:39:01;10.77;;;9.67;;
5821;SDS011;2937;48.562;8.022;2023-08-17T17:43:54;15.13;;;9.80;;
5821;SDS011;2937;48.562;8.022;2023-08-17T17:48:49;11.33;;;10.27;;
5821;SDS011;2937;48.562;8.022;2023-08-17T17:53:41;11.20;;;9.87;;
5821;SDS011;2937;48.562;8.022;2023-08-17T17:58:34;12.27;;;9.80;;
5821;SDS011;2937;48.562;8.022;2023-08-17T18:03:27;13.03;;;9.90;;
5821;SDS011;2937;48.562;8.022;2023-08-17T18:08:21;15.10;;;10.27;;
5821;SDS011;2937;48.562;8.022;2023-08-17T18:13:13;11.23;;;10.13;;
5821;SDS011;2937;48.562;8.022;2023-08-17T18:18:06;15.57;;;11.47;;
5821;SDS011;2937;48.562;8.022;2023-08-17T18:22:59;15.83;;;11.00;;
5821;SDS011;2937;48.562;8.022;2023-08-17T18:27:53;12.00;;;10.67;;
5821;SDS011;2937;48.562;8.022;2023-08-17T18:32:46;13.27;;;11.33;;
5821;SDS011;2937;48.562;8.022;2023-08-17T18:37:38;15.27;;;12.53;;
5821;SDS011;2937;48.562;8.022;2023-08-17T18:42:32;15.07;;;12.80;;
5821;SDS011;2937;48.562;8.022;2023-08-17T18:47:26;14.00;;;12.53;;
5821;SDS011;2937;48.562;8.022;2023-08-17T18:52:19;13.00;;;11.70;;
5821;SDS011;2937;48.562;8.022;2023-08-17T18:57:11;14.60;;;12.30;;
5821;SDS011;2937;48.562;8.022;2023-08-17T19:02:04;14.60;;;13.10;;
5821;SDS011;2937;48.562;8.022;2023-08-17T19:06:58;16.67;;;14.17;;
5821;SDS011;2937;48.562;8.022;2023-08-17T19:11:51;14.87;;;13.37;;
5821;SDS011;2937;48.562;8.022;2023-08-17T19:16:44;15.43;;;13.83;;
5821;SDS011;2937;48.562;8.022;2023-08-17T19:21:36;17.97;;;13.97;;
5821;SDS011;2937;48.562;8.022;2023-08-17T19:26:30;16.20;;;14.20;;
5821;SDS011;2937;48.562;8.022;2023-08-17T19:31:23;17.17;;;14.87;;
5821;SDS011;2937;48.562;8.022;2023-08-17T19:36:16;16.97;;;15.17;;
5821;SDS011;2937;48.562;8.022;2023-08-17T19:41:09;16.33;;;14.70;;
5821;SDS011;2937;48.562;8.022;2023-08-17T19:46:03;24.07;;;16.50;;
5821;SDS011;2937;48.562;8.022;2023-08-17T19:50:55;17.73;;;15.80;;
5821;SDS011;2937;48.562;8.022;2023-08-17T19:55:48;19.50;;;16.60;;
5821;SDS011;2937;48.562;8.022;2023-08-17T20:00:40;18.43;;;15.40;;
5821;SDS011;2937;48.562;8.022;2023-08-17T20:05:35;16.20;;;14.47;;
5821;SDS011;2937;48.562;8.022;2023-08-17T20:10:29;16.63;;;14.83;;
5821;SDS011;2937;48.562;8.022;2023-08-17T20:15:21;14.83;;;13.17;;
5821;SDS011;2937;48.562;8.022;2023-08-17T20:20:14;17.60;;;13.60;;
5821;SDS011;2937;48.562;8.022;2023-08-17T20:25:09;14.93;;;13.33;;
5821;SDS011;2937;48.562;8.022;2023-08-17T20:30:04;16.80;;;12.57;;
5821;SDS011;2937;48.562;8.022;2023-08-17T20:34:57;18.60;;;11.20;;
5821;SDS011;2937;48.562;8.022;2023-08-17T20:39:50;14.50;;;12.10;;
5821;SDS011;2937;48.562;8.022;2023-08-17T20:44:45;16.57;;;12.30;;
5821;SDS011;2937;48.562;8.022;2023-08-17T20:49:37;17.30;;;13.83;;
5821;SDS011;2937;48.562;8.022;2023-08-17T20:54:31;15.83;;;13.83;;
5821;SDS011;2937;48.562;8.022;2023-08-17T20:59:24;16.47;;;13.57;;
5821;SDS011;2937;48.562;8.022;2023-08-17T21:04:18;16.13;;;11.60;;
5821;SDS011;2937;48.562;8.022;2023-08-17T21:09:11;14.90;;;12.10;;
5821;SDS011;2937;48.562;8.022;2023-08-17T21:14:04;14.03;;;12.13;;
5821;SDS011;2937;48.562;8.022;2023-08-17T21:18:57;16.60;;;12.00;;
5821;SDS011;2937;48.562;8.022;2023-08-17T21:23:52;15.27;;;11.47;;
5821;SDS011;2937;48.562;8.022;2023-08-17T21:28:44;12.70;;;11.40;;
5821;SDS011;2937;48.562;8.022;2023-08-17T21:33:37;16.27;;;11.17;;
5821;SDS011;2937;48.562;8.022;2023-08-17T21:38:29;13.23;;;9.80;;
5821;SDS011;2937;48.562;8.022;2023-08-17T21:43:23;17.90;;;10.90;;
5821;SDS011;2937;48.562;8.022;2023-08-17T21:48:16;13.90;;;10.97;;
5821;SDS011;2937;48.562;8.022;2023-08-17T21:53:08;18.23;;;11.97;;
5821;SDS011;2937;48.562;8.022;2023-08-17T21:58:01;18.07;;;12.13;;
5821;SDS011;2937;48.562;8.022;2023-08-17T22:02:55;19.77;;;12.80;;
5821;SDS011;2937;48.562;8.022;2023-08-17T22:07:48;19.10;;;14.53;;
5821;SDS011;2937;48.562;8.022;2023-08-17T22:12:40;15.50;;;13.50;;
5821;SDS011;2937;48.562;8.022;2023-08-17T22:17:33;21.57;;;15.37;;
5821;SDS011;2937;48.562;8.022;2023-08-17T22:22:27;19.30;;;14.90;;
5821;SDS011;2937;48.562;8.022;2023-08-17T22:27:20;18.90;;;15.50;;
5821;SDS011;2937;48.562;8.022;2023-08-17T22:32:12;18.73;;;15.27;;
5821;SDS011;2937;48.562;8.022;2023-08-17T22:37:05;17.50;;;15.23;;
5821;SDS011;2937;48.562;8.022;2023-08-17T22:41:59;18.37;;;14.87;;
5821;SDS011;2937;48.562;8.022;2023-08-17T22:46:51;18.27;;;16.47;;
5821;SDS011;2937;48.562;8.022;2023-08-17T22:51:44;18.47;;;16.47;;
5821;SDS011;2937;48.562;8.022;2023-08-17T22:56:36;21.70;;;16.60;;
5821;SDS011;2937;48.562;8.022;2023-08-17T23:01:31;19.93;;;17.70;;
5821;SDS011;2937;48.562;8.022;2023-08-17T23:06:23;27.80;;;22.50;;
5821;SDS011;2937;48.562;8.022;2023-08-17T23:11:16;31.70;;;22.50;;
5821;SDS011;2937;48.562;8.022;2023-08-17T23:16:09;37.20;;;29.00;;
5821;SDS011;2937;48.562;8.022;2023-08-17T23:21:03;36.57;;;28.10;;
5821;SDS011;2937;48.562;8.022;2023-08-17T23:25:55;34.10;;;26.90;;
5821;SDS011;2937;48.562;8.022;2023-08-17T23:30:48;37.27;;;28.20;;
5821;SDS011;2937;48.562;8.022;2023-08-17T23:35:40;39.13;;;28.47;;
5821;SDS011;2937;48.562;8.022;2023-08-17T23:40:34;36.07;;;26.30;;
5821;SDS011;2937;48.562;8.022;2023-08-17T23:45:27;38.80;;;27.80;;
5821;SDS011;2937;48.562;8.022;2023-08-17T23:50:20;37.83;;;26.43;;
5821;SDS011;2937;48.562;8.022;2023-08-17T23:55:12;45.97;;;32.50;;
